Ahoskie, North Carolina
Current Conditions -  °F | °C
As of 3:15 PM on Monday 26 Jan 2015 (Local Time) from KASJ Reporting Station
Overcast Overcast  
Wind Chill: 11°   Ceiling: 3400
Heat Index: 11°   Visibility: 10mi
Dew Point:   Wind: 7mph
Humidity: 64%   Direction: 10°N
Pressure: 29.56"   Gusts: NA
Location:  36.29°N, 76.98°W
Report Text: KASJ 262015Z AUTO 01006KT 10SM BKN034 OVC055 11/04 A2956 RMK AO2 T01060041
Loading
Personal Weather Stations






























Interactive Weather Map New forecast layout! Learn more

10-Day Weather Forecast

Advertisements
Track Severe Weather on mobile